Terminal Aerodrome Forecast
Issued by NWS Louisville, KY

Home | Current Version | Previous Version | Text Only | Print | Product List | Glossary On
Versions: 1 2 3 4 5 6 7 8 9 10 11 12 13 14 15 16 17 18 19 20 21
000
FTUS43 KLMK 291120
TAFSDF
TAF
KSDF 291120Z 2912/3018 22004KT P6SM FEW020 SCT070 BKN250
      TEMPO 2912/2913 5SM BR
     FM291700 25011KT P6SM SCT070 BKN250
     FM300100 24006KT P6SM BKN070
     FM301600 27010KT P6SM SCT070 BKN250=

USA.gov is the U.S. government's official web portal to all federal, state and local government web resources and services.